sensor_id;sensor_type;location;lat;lon;timestamp;temperature;humidity
63537;DHT22;49686;51.880;5.632;2023-07-24T00:01:15;17.60;99.90
63537;DHT22;49686;51.880;5.632;2023-07-24T00:03:42;17.70;99.90
63537;DHT22;49686;51.880;5.632;2023-07-24T00:06:08;17.70;99.90
63537;DHT22;49686;51.880;5.632;2023-07-24T00:08:37;17.60;99.90
63537;DHT22;49686;51.880;5.632;2023-07-24T00:11:07;17.70;99.90
63537;DHT22;49686;51.880;5.632;2023-07-24T00:13:34;17.70;99.90
63537;DHT22;49686;51.880;5.632;2023-07-24T00:16:00;17.70;99.90
63537;DHT22;49686;51.880;5.632;2023-07-24T00:18:32;17.70;99.90
63537;DHT22;49686;51.880;5.632;2023-07-24T00:20:59;17.70;99.90
63537;DHT22;49686;51.880;5.632;2023-07-24T00:23:25;17.60;99.90
63537;DHT22;49686;51.880;5.632;2023-07-24T00:25:54;17.70;99.90
63537;DHT22;49686;51.880;5.632;2023-07-24T00:28:20;17.70;99.90
63537;DHT22;49686;51.880;5.632;2023-07-24T00:30:47;17.60;99.90
63537;DHT22;49686;51.880;5.632;2023-07-24T00:33:14;17.60;99.90
63537;DHT22;49686;51.880;5.632;2023-07-24T00:35:41;17.60;99.90
63537;DHT22;49686;51.880;5.632;2023-07-24T00:38:08;17.60;99.90
63537;DHT22;49686;51.880;5.632;2023-07-24T00:40:35;17.60;99.90
63537;DHT22;49686;51.880;5.632;2023-07-24T00:43:03;17.50;99.90
63537;DHT22;49686;51.880;5.632;2023-07-24T00:45:30;17.50;99.90
63537;DHT22;49686;51.880;5.632;2023-07-24T00:47:57;17.50;99.90
63537;DHT22;49686;51.880;5.632;2023-07-24T00:50:25;17.50;99.90
63537;DHT22;49686;51.880;5.632;2023-07-24T00:52:52;17.50;99.90
63537;DHT22;49686;51.880;5.632;2023-07-24T00:55:19;17.50;99.90
63537;DHT22;49686;51.880;5.632;2023-07-24T00:57:46;17.50;99.90
63537;DHT22;49686;51.880;5.632;2023-07-24T01:00:14;17.60;99.90
63537;DHT22;49686;51.880;5.632;2023-07-24T01:02:42;17.50;99.90
63537;DHT22;49686;51.880;5.632;2023-07-24T01:05:11;17.50;99.90
63537;DHT22;49686;51.880;5.632;2023-07-24T01:07:39;17.50;99.90
63537;DHT22;49686;51.880;5.632;2023-07-24T01:10:06;17.50;99.90
63537;DHT22;49686;51.880;5.632;2023-07-24T01:12:36;17.50;99.90
63537;DHT22;49686;51.880;5.632;2023-07-24T01:15:06;17.50;99.90
63537;DHT22;49686;51.880;5.632;2023-07-24T01:17:41;17.40;99.90
63537;DHT22;49686;51.880;5.632;2023-07-24T01:20:11;17.50;99.90
63537;DHT22;49686;51.880;5.632;2023-07-24T01:22:39;17.50;99.90
63537;DHT22;49686;51.880;5.632;2023-07-24T01:25:20;17.40;99.90
63537;DHT22;49686;51.880;5.632;2023-07-24T01:27:51;17.40;99.90
63537;DHT22;49686;51.880;5.632;2023-07-24T01:30:19;17.40;99.90
63537;DHT22;49686;51.880;5.632;2023-07-24T01:32:46;17.40;99.90
63537;DHT22;49686;51.880;5.632;2023-07-24T01:35:13;17.40;99.90
63537;DHT22;49686;51.880;5.632;2023-07-24T01:37:41;17.40;99.90
63537;DHT22;49686;51.880;5.632;2023-07-24T01:40:10;17.30;99.90
63537;DHT22;49686;51.880;5.632;2023-07-24T01:42:38;17.30;99.90
63537;DHT22;49686;51.880;5.632;2023-07-24T01:45:07;17.30;99.90
63537;DHT22;49686;51.880;5.632;2023-07-24T01:47:34;17.30;99.90
63537;DHT22;49686;51.880;5.632;2023-07-24T01:50:02;17.30;99.90
63537;DHT22;49686;51.880;5.632;2023-07-24T01:52:28;17.30;99.90
63537;DHT22;49686;51.880;5.632;2023-07-24T01:54:55;17.30;99.90
63537;DHT22;49686;51.880;5.632;2023-07-24T01:57:22;17.30;99.90
63537;DHT22;49686;51.880;5.632;2023-07-24T01:59:49;17.30;99.90
63537;DHT22;49686;51.880;5.632;2023-07-24T02:02:17;17.30;99.90
63537;DHT22;49686;51.880;5.632;2023-07-24T02:04:46;17.30;99.90
63537;DHT22;49686;51.880;5.632;2023-07-24T02:07:12;17.30;99.90
63537;DHT22;49686;51.880;5.632;2023-07-24T02:09:39;17.40;99.90
63537;DHT22;49686;51.880;5.632;2023-07-24T02:12:06;17.40;99.90
63537;DHT22;49686;51.880;5.632;2023-07-24T02:14:33;17.40;99.90
63537;DHT22;49686;51.880;5.632;2023-07-24T02:17:00;17.40;99.90
63537;DHT22;49686;51.880;5.632;2023-07-24T02:19:28;17.40;99.90
63537;DHT22;49686;51.880;5.632;2023-07-24T02:21:55;17.40;99.90
63537;DHT22;49686;51.880;5.632;2023-07-24T02:24:22;17.40;99.90
63537;DHT22;49686;51.880;5.632;2023-07-24T02:26:48;17.50;99.90
63537;DHT22;49686;51.880;5.632;2023-07-24T02:29:15;17.50;99.90
63537;DHT22;49686;51.880;5.632;2023-07-24T02:31:42;17.50;99.90
63537;DHT22;49686;51.880;5.632;2023-07-24T02:34:09;17.50;99.90
63537;DHT22;49686;51.880;5.632;2023-07-24T02:36:37;17.50;99.90
63537;DHT22;49686;51.880;5.632;2023-07-24T02:39:04;17.50;99.90
63537;DHT22;49686;51.880;5.632;2023-07-24T02:41:31;17.50;99.90
63537;DHT22;49686;51.880;5.632;2023-07-24T02:43:57;17.50;99.90
63537;DHT22;49686;51.880;5.632;2023-07-24T02:46:24;17.50;99.90
63537;DHT22;49686;51.880;5.632;2023-07-24T02:48:52;17.50;99.90
63537;DHT22;49686;51.880;5.632;2023-07-24T02:51:18;17.50;99.90
63537;DHT22;49686;51.880;5.632;2023-07-24T02:53:47;17.50;99.90
63537;DHT22;49686;51.880;5.632;2023-07-24T02:56:15;17.50;99.90
63537;DHT22;49686;51.880;5.632;2023-07-24T02:58:41;17.50;99.90
63537;DHT22;49686;51.880;5.632;2023-07-24T03:01:08;17.50;99.90
63537;DHT22;49686;51.880;5.632;2023-07-24T03:03:35;17.50;99.90
63537;DHT22;49686;51.880;5.632;2023-07-24T03:06:02;17.50;99.90
63537;DHT22;49686;51.880;5.632;2023-07-24T03:08:29;17.50;99.90
63537;DHT22;49686;51.880;5.632;2023-07-24T03:10:57;17.40;99.90
63537;DHT22;49686;51.880;5.632;2023-07-24T03:13:24;17.40;99.90
63537;DHT22;49686;51.880;5.632;2023-07-24T03:15:54;17.40;99.90
63537;DHT22;49686;51.880;5.632;2023-07-24T03:18:22;17.40;99.90
63537;DHT22;49686;51.880;5.632;2023-07-24T03:20:49;17.30;99.90
63537;DHT22;49686;51.880;5.632;2023-07-24T03:23:16;17.30;99.90
63537;DHT22;49686;51.880;5.632;2023-07-24T03:25:43;17.30;99.90
63537;DHT22;49686;51.880;5.632;2023-07-24T03:28:11;17.30;99.90
63537;DHT22;49686;51.880;5.632;2023-07-24T03:30:38;17.30;99.90
63537;DHT22;49686;51.880;5.632;2023-07-24T03:33:05;17.30;99.90
63537;DHT22;49686;51.880;5.632;2023-07-24T03:35:32;17.30;99.90
63537;DHT22;49686;51.880;5.632;2023-07-24T03:37:58;17.20;99.90
63537;DHT22;49686;51.880;5.632;2023-07-24T03:40:25;17.20;99.90
63537;DHT22;49686;51.880;5.632;2023-07-24T03:42:52;17.20;99.90
63537;DHT22;49686;51.880;5.632;2023-07-24T03:45:20;17.20;99.90
63537;DHT22;49686;51.880;5.632;2023-07-24T03:47:47;17.10;99.90
63537;DHT22;49686;51.880;5.632;2023-07-24T03:50:14;17.10;99.90
63537;DHT22;49686;51.880;5.632;2023-07-24T03:52:41;17.10;99.90
63537;DHT22;49686;51.880;5.632;2023-07-24T03:55:08;17.10;99.90
63537;DHT22;49686;51.880;5.632;2023-07-24T03:57:35;17.00;99.90
63537;DHT22;49686;51.880;5.632;2023-07-24T04:00:02;17.00;99.90
63537;DHT22;49686;51.880;5.632;2023-07-24T04:02:31;17.00;99.90
63537;DHT22;49686;51.880;5.632;2023-07-24T04:04:58;17.00;99.90
63537;DHT22;49686;51.880;5.632;2023-07-24T04:07:24;17.00;99.90
63537;DHT22;49686;51.880;5.632;2023-07-24T04:09:51;17.00;99.90
63537;DHT22;49686;51.880;5.632;2023-07-24T04:12:18;17.00;99.90
63537;DHT22;49686;51.880;5.632;2023-07-24T04:14:45;17.00;99.90
63537;DHT22;49686;51.880;5.632;2023-07-24T04:17:12;17.00;99.90
63537;DHT22;49686;51.880;5.632;2023-07-24T04:19:40;16.90;99.90
63537;DHT22;49686;51.880;5.632;2023-07-24T04:22:07;17.00;99.90
63537;DHT22;49686;51.880;5.632;2023-07-24T04:24:34;16.90;99.90
63537;DHT22;49686;51.880;5.632;2023-07-24T04:27:01;17.00;99.90
63537;DHT22;49686;51.880;5.632;2023-07-24T04:29:27;17.00;99.90
63537;DHT22;49686;51.880;5.632;2023-07-24T04:31:54;17.00;99.90
63537;DHT22;49686;51.880;5.632;2023-07-24T04:34:21;16.90;99.90
63537;DHT22;49686;51.880;5.632;2023-07-24T04:36:49;17.00;99.90
63537;DHT22;49686;51.880;5.632;2023-07-24T04:39:16;16.90;99.90
63537;DHT22;49686;51.880;5.632;2023-07-24T04:41:43;16.90;99.90
63537;DHT22;49686;51.880;5.632;2023-07-24T04:44:09;16.90;99.90
63537;DHT22;49686;51.880;5.632;2023-07-24T04:46:36;16.90;99.90
63537;DHT22;49686;51.880;5.632;2023-07-24T04:49:03;16.90;99.90
63537;DHT22;49686;51.880;5.632;2023-07-24T04:51:30;16.90;99.90
63537;DHT22;49686;51.880;5.632;2023-07-24T04:54:03;16.90;99.90
63537;DHT22;49686;51.880;5.632;2023-07-24T04:56:29;16.90;99.90
63537;DHT22;49686;51.880;5.632;2023-07-24T04:58:57;16.90;99.90
63537;DHT22;49686;51.880;5.632;2023-07-24T05:01:24;16.90;99.90
63537;DHT22;49686;51.880;5.632;2023-07-24T05:03:51;16.90;99.90
63537;DHT22;49686;51.880;5.632;2023-07-24T05:06:17;16.80;99.90
63537;DHT22;49686;51.880;5.632;2023-07-24T05:08:44;16.80;99.90
63537;DHT22;49686;51.880;5.632;2023-07-24T05:11:12;16.80;99.90
63537;DHT22;49686;51.880;5.632;2023-07-24T05:13:39;16.80;99.90
63537;DHT22;49686;51.880;5.632;2023-07-24T05:16:06;16.80;99.90
63537;DHT22;49686;51.880;5.632;2023-07-24T05:18:33;16.80;99.90
63537;DHT22;49686;51.880;5.632;2023-07-24T05:21:00;16.70;99.90
63537;DHT22;49686;51.880;5.632;2023-07-24T05:23:27;16.70;99.90
63537;DHT22;49686;51.880;5.632;2023-07-24T05:25:57;16.70;99.90
63537;DHT22;49686;51.880;5.632;2023-07-24T05:28:26;16.80;99.90
63537;DHT22;49686;51.880;5.632;2023-07-24T05:30:53;16.70;99.90
63537;DHT22;49686;51.880;5.632;2023-07-24T05:33:20;16.80;99.90
63537;DHT22;49686;51.880;5.632;2023-07-24T05:35:48;16.80;99.90
63537;DHT22;49686;51.880;5.632;2023-07-24T05:38:15;16.80;99.90
63537;DHT22;49686;51.880;5.632;2023-07-24T05:40:42;16.70;99.90
63537;DHT22;49686;51.880;5.632;2023-07-24T05:43:09;16.80;99.90
63537;DHT22;49686;51.880;5.632;2023-07-24T05:45:37;16.70;99.90
63537;DHT22;49686;51.880;5.632;2023-07-24T05:48:04;16.80;99.90
63537;DHT22;49686;51.880;5.632;2023-07-24T05:50:32;16.80;99.90
63537;DHT22;49686;51.880;5.632;2023-07-24T05:52:58;16.80;99.90
63537;DHT22;49686;51.880;5.632;2023-07-24T05:55:25;16.70;99.90
63537;DHT22;49686;51.880;5.632;2023-07-24T05:57:52;16.80;99.90
63537;DHT22;49686;51.880;5.632;2023-07-24T06:00:19;16.80;99.90
63537;DHT22;49686;51.880;5.632;2023-07-24T06:02:47;16.90;99.90
63537;DHT22;49686;51.880;5.632;2023-07-24T06:05:14;16.90;99.90
63537;DHT22;49686;51.880;5.632;2023-07-24T06:07:41;16.90;99.90
63537;DHT22;49686;51.880;5.632;2023-07-24T06:10:08;16.90;99.90
63537;DHT22;49686;51.880;5.632;2023-07-24T06:12:35;16.90;99.90
63537;DHT22;49686;51.880;5.632;2023-07-24T06:15:02;17.00;99.90
63537;DHT22;49686;51.880;5.632;2023-07-24T06:17:29;17.00;99.90
63537;DHT22;49686;51.880;5.632;2023-07-24T06:19:58;16.90;99.90
63537;DHT22;49686;51.880;5.632;2023-07-24T06:22:25;17.10;99.90
63537;DHT22;49686;51.880;5.632;2023-07-24T06:24:51;17.10;99.90
63537;DHT22;49686;51.880;5.632;2023-07-24T06:27:18;17.20;99.90
63537;DHT22;49686;51.880;5.632;2023-07-24T06:29:45;17.20;99.90
63537;DHT22;49686;51.880;5.632;2023-07-24T06:32:13;17.20;99.90
63537;DHT22;49686;51.880;5.632;2023-07-24T06:34:40;17.10;99.90
63537;DHT22;49686;51.880;5.632;2023-07-24T06:37:08;17.10;99.90
63537;DHT22;49686;51.880;5.632;2023-07-24T06:39:48;17.20;99.90
63537;DHT22;49686;51.880;5.632;2023-07-24T06:42:15;17.40;99.90
63537;DHT22;49686;51.880;5.632;2023-07-24T06:44:42;17.70;99.90
63537;DHT22;49686;51.880;5.632;2023-07-24T06:47:09;17.80;99.90
63537;DHT22;49686;51.880;5.632;2023-07-24T06:49:36;17.70;99.90
63537;DHT22;49686;51.880;5.632;2023-07-24T06:52:03;17.60;99.90
63537;DHT22;49686;51.880;5.632;2023-07-24T06:54:31;18.10;99.90
63537;DHT22;49686;51.880;5.632;2023-07-24T06:56:58;18.20;99.90
63537;DHT22;49686;51.880;5.632;2023-07-24T06:59:24;18.20;99.90
63537;DHT22;49686;51.880;5.632;2023-07-24T07:01:51;18.00;99.90
63537;DHT22;49686;51.880;5.632;2023-07-24T07:04:18;17.90;99.90
63537;DHT22;49686;51.880;5.632;2023-07-24T07:06:45;18.10;99.90
63537;DHT22;49686;51.880;5.632;2023-07-24T07:09:12;18.30;99.90
63537;DHT22;49686;51.880;5.632;2023-07-24T07:11:40;18.30;99.90
63537;DHT22;49686;51.880;5.632;2023-07-24T07:14:07;18.30;99.90
63537;DHT22;49686;51.880;5.632;2023-07-24T07:16:34;18.10;99.90
63537;DHT22;49686;51.880;5.632;2023-07-24T07:19:01;18.00;99.90
63537;DHT22;49686;51.880;5.632;2023-07-24T07:21:28;18.10;99.90
63537;DHT22;49686;51.880;5.632;2023-07-24T07:23:54;18.20;99.90
63537;DHT22;49686;51.880;5.632;2023-07-24T07:26:21;18.30;99.90
63537;DHT22;49686;51.880;5.632;2023-07-24T07:28:49;18.40;99.90
63537;DHT22;49686;51.880;5.632;2023-07-24T07:31:16;18.40;99.90
63537;DHT22;49686;51.880;5.632;2023-07-24T07:33:43;18.20;99.90
63537;DHT22;49686;51.880;5.632;2023-07-24T07:36:10;18.20;99.90
63537;DHT22;49686;51.880;5.632;2023-07-24T07:38:37;18.30;99.90
63537;DHT22;49686;51.880;5.632;2023-07-24T07:41:04;18.30;99.90
63537;DHT22;49686;51.880;5.632;2023-07-24T07:43:31;18.40;99.90
63537;DHT22;49686;51.880;5.632;2023-07-24T07:45:59;18.40;99.90
63537;DHT22;49686;51.880;5.632;2023-07-24T07:48:26;18.30;99.90
63537;DHT22;49686;51.880;5.632;2023-07-24T07:50:53;18.20;99.90
63537;DHT22;49686;51.880;5.632;2023-07-24T07:53:20;18.00;99.90
63537;DHT22;49686;51.880;5.632;2023-07-24T07:55:55;17.80;99.90
63537;DHT22;49686;51.880;5.632;2023-07-24T07:58:22;18.10;99.90
63537;DHT22;49686;51.880;5.632;2023-07-24T08:00:49;18.40;99.90
63537;DHT22;49686;51.880;5.632;2023-07-24T08:03:17;18.60;99.90
63537;DHT22;49686;51.880;5.632;2023-07-24T08:05:44;19.10;99.90
63537;DHT22;49686;51.880;5.632;2023-07-24T08:08:11;19.50;99.90
63537;DHT22;49686;51.880;5.632;2023-07-24T08:10:37;19.20;99.90
63537;DHT22;49686;51.880;5.632;2023-07-24T08:13:04;18.90;99.90
63537;DHT22;49686;51.880;5.632;2023-07-24T08:15:34;18.80;99.90
63537;DHT22;49686;51.880;5.632;2023-07-24T08:18:01;18.70;99.90
63537;DHT22;49686;51.880;5.632;2023-07-24T08:20:29;18.60;99.90
63537;DHT22;49686;51.880;5.632;2023-07-24T08:22:56;18.70;99.90
63537;DHT22;49686;51.880;5.632;2023-07-24T08:25:23;19.20;99.90
63537;DHT22;49686;51.880;5.632;2023-07-24T08:27:50;19.70;99.90
63537;DHT22;49686;51.880;5.632;2023-07-24T08:30:31;20.10;99.90
63537;DHT22;49686;51.880;5.632;2023-07-24T08:32:58;20.80;99.90
63537;DHT22;49686;51.880;5.632;2023-07-24T08:35:25;20.70;99.90
63537;DHT22;49686;51.880;5.632;2023-07-24T08:37:53;20.20;99.90
63537;DHT22;49686;51.880;5.632;2023-07-24T08:40:20;19.90;99.90
63537;DHT22;49686;51.880;5.632;2023-07-24T08:42:49;19.70;99.90
63537;DHT22;49686;51.880;5.632;2023-07-24T08:45:16;19.70;99.90
63537;DHT22;49686;51.880;5.632;2023-07-24T08:47:44;20.00;99.90
63537;DHT22;49686;51.880;5.632;2023-07-24T08:50:11;20.60;99.90
63537;DHT22;49686;51.880;5.632;2023-07-24T08:52:38;20.40;99.90
63537;DHT22;49686;51.880;5.632;2023-07-24T08:55:07;20.40;99.90
63537;DHT22;49686;51.880;5.632;2023-07-24T08:57:34;20.40;99.90
63537;DHT22;49686;51.880;5.632;2023-07-24T09:00:02;19.90;99.90
63537;DHT22;49686;51.880;5.632;2023-07-24T09:02:29;19.40;99.90
63537;DHT22;49686;51.880;5.632;2023-07-24T09:04:55;19.50;99.90
63537;DHT22;49686;51.880;5.632;2023-07-24T09:07:22;19.60;99.90
63537;DHT22;49686;51.880;5.632;2023-07-24T09:09:49;19.80;99.90
63537;DHT22;49686;51.880;5.632;2023-07-24T09:12:17;19.80;99.90
63537;DHT22;49686;51.880;5.632;2023-07-24T09:14:44;20.20;99.90
63537;DHT22;49686;51.880;5.632;2023-07-24T09:17:11;20.30;99.90
63537;DHT22;49686;51.880;5.632;2023-07-24T09:19:38;20.10;99.90
63537;DHT22;49686;51.880;5.632;2023-07-24T09:22:09;20.50;99.90
63537;DHT22;49686;51.880;5.632;2023-07-24T09:24:37;20.70;99.90
63537;DHT22;49686;51.880;5.632;2023-07-24T09:27:05;21.00;99.90
63537;DHT22;49686;51.880;5.632;2023-07-24T09:29:34;20.70;99.90
63537;DHT22;49686;51.880;5.632;2023-07-24T09:32:01;20.40;99.90
63537;DHT22;49686;51.880;5.632;2023-07-24T09:34:27;20.40;99.90
63537;DHT22;49686;51.880;5.632;2023-07-24T09:36:54;20.20;99.90
63537;DHT22;49686;51.880;5.632;2023-07-24T09:39:24;20.40;99.90
63537;DHT22;49686;51.880;5.632;2023-07-24T09:41:51;20.50;99.90
63537;DHT22;49686;51.880;5.632;2023-07-24T09:44:19;20.60;99.90
63537;DHT22;49686;51.880;5.632;2023-07-24T09:46:47;20.30;99.90
63537;DHT22;49686;51.880;5.632;2023-07-24T09:49:26;20.20;99.90
63537;DHT22;49686;51.880;5.632;2023-07-24T09:51:59;20.10;99.90
63537;DHT22;49686;51.880;5.632;2023-07-24T09:54:33;19.80;99.90
63537;DHT22;49686;51.880;5.632;2023-07-24T09:57:03;19.80;99.90
63537;DHT22;49686;51.880;5.632;2023-07-24T09:59:47;20.00;99.90
63537;DHT22;49686;51.880;5.632;2023-07-24T10:02:17;20.10;99.90
63537;DHT22;49686;51.880;5.632;2023-07-24T10:04:45;20.50;99.90
63537;DHT22;49686;51.880;5.632;2023-07-24T10:07:13;20.50;99.90
63537;DHT22;49686;51.880;5.632;2023-07-24T10:09:40;20.70;99.90
63537;DHT22;49686;51.880;5.632;2023-07-24T10:12:08;20.20;99.90
63537;DHT22;49686;51.880;5.632;2023-07-24T10:14:37;19.90;99.90
63537;DHT22;49686;51.880;5.632;2023-07-24T10:17:04;19.60;99.90
63537;DHT22;49686;51.880;5.632;2023-07-24T10:19:39;19.50;99.90
63537;DHT22;49686;51.880;5.632;2023-07-24T10:22:06;19.30;99.90
63537;DHT22;49686;51.880;5.632;2023-07-24T10:24:33;19.10;99.90
63537;DHT22;49686;51.880;5.632;2023-07-24T10:27:08;18.90;99.90
63537;DHT22;49686;51.880;5.632;2023-07-24T10:29:35;18.80;99.90
63537;DHT22;49686;51.880;5.632;2023-07-24T10:32:02;18.90;99.90
63537;DHT22;49686;51.880;5.632;2023-07-24T10:34:37;19.00;99.90
63537;DHT22;49686;51.880;5.632;2023-07-24T10:37:07;19.20;99.90
63537;DHT22;49686;51.880;5.632;2023-07-24T10:39:38;19.20;99.90
63537;DHT22;49686;51.880;5.632;2023-07-24T10:42:07;19.20;99.90
63537;DHT22;49686;51.880;5.632;2023-07-24T10:44:34;19.40;99.90
63537;DHT22;49686;51.880;5.632;2023-07-24T10:47:01;19.30;99.90
63537;DHT22;49686;51.880;5.632;2023-07-24T10:49:28;19.20;99.90
63537;DHT22;49686;51.880;5.632;2023-07-24T10:51:57;19.40;99.90
63537;DHT22;49686;51.880;5.632;2023-07-24T10:54:24;19.40;99.90
63537;DHT22;49686;51.880;5.632;2023-07-24T10:56:57;19.40;99.90
63537;DHT22;49686;51.880;5.632;2023-07-24T10:59:35;19.30;99.90
63537;DHT22;49686;51.880;5.632;2023-07-24T11:02:03;19.60;99.90
63537;DHT22;49686;51.880;5.632;2023-07-24T11:04:30;19.80;99.90
63537;DHT22;49686;51.880;5.632;2023-07-24T11:07:00;20.00;99.90
63537;DHT22;49686;51.880;5.632;2023-07-24T11:09:34;20.40;99.90
63537;DHT22;49686;51.880;5.632;2023-07-24T11:12:09;20.30;99.90
63537;DHT22;49686;51.880;5.632;2023-07-24T11:14:46;20.40;99.90
63537;DHT22;49686;51.880;5.632;2023-07-24T11:17:13;19.80;99.90
63537;DHT22;49686;51.880;5.632;2023-07-24T11:19:39;19.50;99.90
63537;DHT22;49686;51.880;5.632;2023-07-24T11:22:08;19.20;99.90
63537;DHT22;49686;51.880;5.632;2023-07-24T11:24:42;19.10;99.90
63537;DHT22;49686;51.880;5.632;2023-07-24T11:27:12;19.00;99.90
63537;DHT22;49686;51.880;5.632;2023-07-24T11:29:39;19.00;99.90
63537;DHT22;49686;51.880;5.632;2023-07-24T11:32:06;19.20;99.90
63537;DHT22;49686;51.880;5.632;2023-07-24T11:34:34;19.50;99.90
63537;DHT22;49686;51.880;5.632;2023-07-24T11:37:01;19.70;99.90
63537;DHT22;49686;51.880;5.632;2023-07-24T11:39:30;19.90;99.90
63537;DHT22;49686;51.880;5.632;2023-07-24T11:41:57;20.10;99.90
63537;DHT22;49686;51.880;5.632;2023-07-24T11:44:26;20.30;99.90
63537;DHT22;49686;51.880;5.632;2023-07-24T11:47:00;20.70;99.90
63537;DHT22;49686;51.880;5.632;2023-07-24T11:49:28;20.80;99.90
63537;DHT22;49686;51.880;5.632;2023-07-24T11:51:59;20.60;99.90
63537;DHT22;49686;51.880;5.632;2023-07-24T11:54:26;21.00;99.90
63537;DHT22;49686;51.880;5.632;2023-07-24T11:56:54;21.70;99.90
63537;DHT22;49686;51.880;5.632;2023-07-24T11:59:21;21.80;99.90
63537;DHT22;49686;51.880;5.632;2023-07-24T12:01:48;22.20;99.90
63537;DHT22;49686;51.880;5.632;2023-07-24T12:04:16;22.20;99.90
63537;DHT22;49686;51.880;5.632;2023-07-24T12:06:43;22.70;99.90
63537;DHT22;49686;51.880;5.632;2023-07-24T12:09:10;22.80;99.90
63537;DHT22;49686;51.880;5.632;2023-07-24T12:11:41;23.00;99.90
63537;DHT22;49686;51.880;5.632;2023-07-24T12:14:13;23.10;99.90
63537;DHT22;49686;51.880;5.632;2023-07-24T12:16:40;22.70;99.90
63537;DHT22;49686;51.880;5.632;2023-07-24T12:19:06;22.00;99.90
63537;DHT22;49686;51.880;5.632;2023-07-24T12:21:34;21.80;99.90
63537;DHT22;49686;51.880;5.632;2023-07-24T12:24:01;22.10;99.90
63537;DHT22;49686;51.880;5.632;2023-07-24T12:26:27;21.90;99.90
63537;DHT22;49686;51.880;5.632;2023-07-24T12:28:54;21.80;99.90
63537;DHT22;49686;51.880;5.632;2023-07-24T12:31:23;21.50;99.90
63537;DHT22;49686;51.880;5.632;2023-07-24T12:33:49;21.60;99.90
63537;DHT22;49686;51.880;5.632;2023-07-24T12:36:16;22.00;99.90
63537;DHT22;49686;51.880;5.632;2023-07-24T12:38:43;22.70;99.90
63537;DHT22;49686;51.880;5.632;2023-07-24T12:41:10;22.30;99.90
63537;DHT22;49686;51.880;5.632;2023-07-24T12:43:37;22.00;99.90
63537;DHT22;49686;51.880;5.632;2023-07-24T12:46:03;21.80;99.90
63537;DHT22;49686;51.880;5.632;2023-07-24T12:48:31;21.90;99.90
63537;DHT22;49686;51.880;5.632;2023-07-24T12:50:58;22.90;99.90
63537;DHT22;49686;51.880;5.632;2023-07-24T12:53:25;22.80;99.90
63537;DHT22;49686;51.880;5.632;2023-07-24T12:56:02;22.40;99.90
63537;DHT22;49686;51.880;5.632;2023-07-24T12:58:29;22.70;99.90
63537;DHT22;49686;51.880;5.632;2023-07-24T13:00:56;22.90;99.90
63537;DHT22;49686;51.880;5.632;2023-07-24T13:03:22;23.00;99.90
63537;DHT22;49686;51.880;5.632;2023-07-24T13:05:51;22.50;99.90
63537;DHT22;49686;51.880;5.632;2023-07-24T13:08:18;22.90;99.90
63537;DHT22;49686;51.880;5.632;2023-07-24T13:10:45;23.30;99.90
63537;DHT22;49686;51.880;5.632;2023-07-24T13:13:11;23.90;99.90
63537;DHT22;49686;51.880;5.632;2023-07-24T13:15:38;24.10;99.90
63537;DHT22;49686;51.880;5.632;2023-07-24T13:18:05;23.40;99.90
63537;DHT22;49686;51.880;5.632;2023-07-24T13:20:53;23.10;99.90
63537;DHT22;49686;51.880;5.632;2023-07-24T13:23:20;23.40;99.90
63537;DHT22;49686;51.880;5.632;2023-07-24T13:25:47;23.60;99.90
63537;DHT22;49686;51.880;5.632;2023-07-24T13:28:14;23.50;99.90
63537;DHT22;49686;51.880;5.632;2023-07-24T13:30:40;23.40;99.90
63537;DHT22;49686;51.880;5.632;2023-07-24T13:33:07;23.80;99.90
63537;DHT22;49686;51.880;5.632;2023-07-24T13:35:34;24.00;99.90
63537;DHT22;49686;51.880;5.632;2023-07-24T13:38:02;23.70;99.90
63537;DHT22;49686;51.880;5.632;2023-07-24T13:40:29;23.50;99.90
63537;DHT22;49686;51.880;5.632;2023-07-24T13:42:56;23.80;99.90
63537;DHT22;49686;51.880;5.632;2023-07-24T13:45:23;23.40;99.90
63537;DHT22;49686;51.880;5.632;2023-07-24T13:47:50;23.50;99.90
63537;DHT22;49686;51.880;5.632;2023-07-24T13:50:17;23.80;99.90
63537;DHT22;49686;51.880;5.632;2023-07-24T13:52:44;24.20;99.90
63537;DHT22;49686;51.880;5.632;2023-07-24T13:55:12;23.80;99.90
63537;DHT22;49686;51.880;5.632;2023-07-24T13:57:39;23.30;99.90
63537;DHT22;49686;51.880;5.632;2023-07-24T14:00:06;23.60;99.90
63537;DHT22;49686;51.880;5.632;2023-07-24T14:02:33;23.80;99.90
63537;DHT22;49686;51.880;5.632;2023-07-24T14:05:00;23.50;99.90
63537;DHT22;49686;51.880;5.632;2023-07-24T14:07:27;22.10;99.90
63537;DHT22;49686;51.880;5.632;2023-07-24T14:09:54;21.60;99.90
63537;DHT22;49686;51.880;5.632;2023-07-24T14:14:59;21.60;99.90
63537;DHT22;49686;51.880;5.632;2023-07-24T14:17:26;21.30;99.90
63537;DHT22;49686;51.880;5.632;2023-07-24T14:19:53;20.60;99.90
63537;DHT22;49686;51.880;5.632;2023-07-24T14:22:20;20.20;99.90
63537;DHT22;49686;51.880;5.632;2023-07-24T14:24:47;19.90;99.90
63537;DHT22;49686;51.880;5.632;2023-07-24T14:27:14;19.80;99.90
63537;DHT22;49686;51.880;5.632;2023-07-24T14:29:41;20.00;99.90
63537;DHT22;49686;51.880;5.632;2023-07-24T14:32:09;20.00;99.90
63537;DHT22;49686;51.880;5.632;2023-07-24T14:34:36;20.00;99.90
63537;DHT22;49686;51.880;5.632;2023-07-24T14:37:03;20.00;99.90
63537;DHT22;49686;51.880;5.632;2023-07-24T14:39:30;20.00;99.90
63537;DHT22;49686;51.880;5.632;2023-07-24T14:41:57;19.80;99.90
63537;DHT22;49686;51.880;5.632;2023-07-24T14:44:25;19.80;99.90
63537;DHT22;49686;51.880;5.632;2023-07-24T14:46:52;19.80;99.90
63537;DHT22;49686;51.880;5.632;2023-07-24T14:49:20;19.50;99.90
63537;DHT22;49686;51.880;5.632;2023-07-24T14:51:47;19.40;99.90
63537;DHT22;49686;51.880;5.632;2023-07-24T14:54:14;19.20;99.90
63537;DHT22;49686;51.880;5.632;2023-07-24T14:56:41;19.00;99.90
63537;DHT22;49686;51.880;5.632;2023-07-24T14:59:22;18.80;99.90
63537;DHT22;49686;51.880;5.632;2023-07-24T15:01:49;18.60;99.90
63537;DHT22;49686;51.880;5.632;2023-07-24T15:04:16;18.50;99.90
63537;DHT22;49686;51.880;5.632;2023-07-24T15:06:44;18.70;99.90
63537;DHT22;49686;51.880;5.632;2023-07-24T15:09:11;19.10;99.90
63537;DHT22;49686;51.880;5.632;2023-07-24T15:11:38;19.50;99.90
63537;DHT22;49686;51.880;5.632;2023-07-24T15:14:05;19.60;99.90
63537;DHT22;49686;51.880;5.632;2023-07-24T15:16:32;19.70;99.90
63537;DHT22;49686;51.880;5.632;2023-07-24T15:18:59;19.70;99.90
63537;DHT22;49686;51.880;5.632;2023-07-24T15:21:26;19.80;99.90
63537;DHT22;49686;51.880;5.632;2023-07-24T15:23:55;19.60;99.90
63537;DHT22;49686;51.880;5.632;2023-07-24T15:26:21;19.50;99.90
63537;DHT22;49686;51.880;5.632;2023-07-24T15:28:48;19.60;99.90
63537;DHT22;49686;51.880;5.632;2023-07-24T15:31:15;19.60;99.90
63537;DHT22;49686;51.880;5.632;2023-07-24T15:33:43;19.70;99.90
63537;DHT22;49686;51.880;5.632;2023-07-24T15:36:10;19.70;99.90